sensor_id;sensor_type;location;lat;lon;timestamp;P1;durP1;ratioP1;P2;durP2;ratioP2
10041;SDS011;5061;49.068;12.058;2022-07-29T00:00:29;1.20;;;1.10;;
10041;SDS011;5061;49.068;12.058;2022-07-29T00:03:49;1.10;;;1.00;;
10041;SDS011;5061;49.068;12.058;2022-07-29T00:07:10;1.10;;;1.00;;
10041;SDS011;5061;49.068;12.058;2022-07-29T00:10:31;1.00;;;0.90;;
10041;SDS011;5061;49.068;12.058;2022-07-29T00:13:51;0.80;;;0.80;;
10041;SDS011;5061;49.068;12.058;2022-07-29T00:17:12;1.00;;;0.87;;
10041;SDS011;5061;49.068;12.058;2022-07-29T00:20:32;1.07;;;0.97;;
10041;SDS011;5061;49.068;12.058;2022-07-29T00:23:53;1.30;;;1.00;;
10041;SDS011;5061;49.068;12.058;2022-07-29T00:27:14;0.93;;;0.83;;
10041;SDS011;5061;49.068;12.058;2022-07-29T00:30:34;1.13;;;1.00;;
10041;SDS011;5061;49.068;12.058;2022-07-29T00:33:55;1.30;;;1.20;;
10041;SDS011;5061;49.068;12.058;2022-07-29T00:37:16;1.10;;;1.00;;
10041;SDS011;5061;49.068;12.058;2022-07-29T00:40:37;2.03;;;1.43;;
10041;SDS011;5061;49.068;12.058;2022-07-29T00:43:57;0.80;;;0.80;;
10041;SDS011;5061;49.068;12.058;2022-07-29T00:47:18;1.23;;;0.93;;
10041;SDS011;5061;49.068;12.058;2022-07-29T00:50:39;1.20;;;1.10;;
10041;SDS011;5061;49.068;12.058;2022-07-29T00:53:59;1.23;;;1.13;;
10041;SDS011;5061;49.068;12.058;2022-07-29T00:57:20;2.30;;;1.30;;
10041;SDS011;5061;49.068;12.058;2022-07-29T01:00:41;1.87;;;1.30;;
10041;SDS011;5061;49.068;12.058;2022-07-29T01:04:02;1.40;;;1.00;;
10041;SDS011;5061;49.068;12.058;2022-07-29T01:07:23;1.00;;;0.90;;
10041;SDS011;5061;49.068;12.058;2022-07-29T01:10:45;1.17;;;1.07;;
10041;SDS011;5061;49.068;12.058;2022-07-29T01:14:07;1.47;;;1.13;;
10041;SDS011;5061;49.068;12.058;2022-07-29T01:17:33;1.90;;;1.20;;
10041;SDS011;5061;49.068;12.058;2022-07-29T01:28:34;1.20;;;1.00;;
10041;SDS011;5061;49.068;12.058;2022-07-29T01:32:10;1.07;;;0.97;;
10041;SDS011;5061;49.068;12.058;2022-07-29T01:35:36;1.20;;;1.10;;
10041;SDS011;5061;49.068;12.058;2022-07-29T01:39:04;1.30;;;1.03;;
10041;SDS011;5061;49.068;12.058;2022-07-29T01:42:35;1.20;;;1.10;;
10041;SDS011;5061;49.068;12.058;2022-07-29T01:46:03;1.10;;;1.00;;
10041;SDS011;5061;49.068;12.058;2022-07-29T01:49:29;1.20;;;1.10;;
10041;SDS011;5061;49.068;12.058;2022-07-29T01:52:59;1.23;;;1.13;;
10041;SDS011;5061;49.068;12.058;2022-07-29T01:56:22;1.17;;;1.07;;
10041;SDS011;5061;49.068;12.058;2022-07-29T01:59:44;1.90;;;1.30;;
10041;SDS011;5061;49.068;12.058;2022-07-29T02:03:07;1.30;;;1.10;;
10041;SDS011;5061;49.068;12.058;2022-07-29T02:06:31;1.03;;;0.93;;
10041;SDS011;5061;49.068;12.058;2022-07-29T02:09:53;2.50;;;1.30;;
10041;SDS011;5061;49.068;12.058;2022-07-29T02:13:15;1.20;;;1.10;;
10041;SDS011;5061;49.068;12.058;2022-07-29T02:16:37;1.30;;;1.13;;
10041;SDS011;5061;49.068;12.058;2022-07-29T02:20:00;1.20;;;1.10;;
10041;SDS011;5061;49.068;12.058;2022-07-29T02:23:23;1.30;;;1.10;;
10041;SDS011;5061;49.068;12.058;2022-07-29T02:26:44;1.30;;;1.20;;
10041;SDS011;5061;49.068;12.058;2022-07-29T02:30:07;1.00;;;0.90;;
10041;SDS011;5061;49.068;12.058;2022-07-29T02:33:30;1.20;;;1.10;;
10041;SDS011;5061;49.068;12.058;2022-07-29T02:36:52;1.17;;;1.07;;
10041;SDS011;5061;49.068;12.058;2022-07-29T02:40:15;1.30;;;1.20;;
10041;SDS011;5061;49.068;12.058;2022-07-29T02:43:36;1.53;;;0.90;;
10041;SDS011;5061;49.068;12.058;2022-07-29T02:47:13;1.30;;;1.20;;
10041;SDS011;5061;49.068;12.058;2022-07-29T02:50:48;1.10;;;1.00;;
10041;SDS011;5061;49.068;12.058;2022-07-29T02:54:26;1.20;;;1.10;;
10041;SDS011;5061;49.068;12.058;2022-07-29T03:01:27;1.13;;;1.03;;
10041;SDS011;5061;49.068;12.058;2022-07-29T03:04:50;1.30;;;1.20;;
10041;SDS011;5061;49.068;12.058;2022-07-29T03:08:12;1.00;;;0.90;;
10041;SDS011;5061;49.068;12.058;2022-07-29T03:11:35;1.17;;;1.00;;
10041;SDS011;5061;49.068;12.058;2022-07-29T03:14:56;1.90;;;0.90;;
10041;SDS011;5061;49.068;12.058;2022-07-29T03:18:18;1.10;;;1.00;;
10041;SDS011;5061;49.068;12.058;2022-07-29T03:21:39;1.10;;;1.00;;
10041;SDS011;5061;49.068;12.058;2022-07-29T03:25:07;1.00;;;0.90;;
10041;SDS011;5061;49.068;12.058;2022-07-29T03:28:28;1.00;;;0.90;;
10041;SDS011;5061;49.068;12.058;2022-07-29T03:31:49;1.00;;;0.90;;
10041;SDS011;5061;49.068;12.058;2022-07-29T03:35:10;1.40;;;1.20;;
10041;SDS011;5061;49.068;12.058;2022-07-29T03:38:31;0.90;;;0.80;;
10041;SDS011;5061;49.068;12.058;2022-07-29T03:41:55;1.30;;;1.20;;
10041;SDS011;5061;49.068;12.058;2022-07-29T03:45:19;1.97;;;1.00;;
10041;SDS011;5061;49.068;12.058;2022-07-29T03:48:42;4.73;;;1.03;;
10041;SDS011;5061;49.068;12.058;2022-07-29T03:52:07;1.10;;;1.00;;
10041;SDS011;5061;49.068;12.058;2022-07-29T03:55:29;1.13;;;0.93;;
10041;SDS011;5061;49.068;12.058;2022-07-29T03:58:56;1.10;;;1.00;;
10041;SDS011;5061;49.068;12.058;2022-07-29T04:02:17;1.10;;;1.00;;
10041;SDS011;5061;49.068;12.058;2022-07-29T04:05:38;1.20;;;1.10;;
10041;SDS011;5061;49.068;12.058;2022-07-29T04:08:59;1.30;;;0.90;;
10041;SDS011;5061;49.068;12.058;2022-07-29T04:12:19;1.33;;;1.13;;
10041;SDS011;5061;49.068;12.058;2022-07-29T04:15:40;1.10;;;1.00;;
10041;SDS011;5061;49.068;12.058;2022-07-29T04:19:01;1.23;;;1.10;;
10041;SDS011;5061;49.068;12.058;2022-07-29T04:22:22;1.40;;;1.30;;
10041;SDS011;5061;49.068;12.058;2022-07-29T04:25:42;1.57;;;1.10;;
10041;SDS011;5061;49.068;12.058;2022-07-29T04:29:03;1.20;;;1.10;;
10041;SDS011;5061;49.068;12.058;2022-07-29T04:32:24;1.50;;;1.20;;
10041;SDS011;5061;49.068;12.058;2022-07-29T04:35:45;1.40;;;1.10;;
10041;SDS011;5061;49.068;12.058;2022-07-29T04:39:05;1.83;;;1.53;;
10041;SDS011;5061;49.068;12.058;2022-07-29T04:42:26;2.00;;;1.20;;
10041;SDS011;5061;49.068;12.058;2022-07-29T04:45:47;2.50;;;1.40;;
10041;SDS011;5061;49.068;12.058;2022-07-29T04:49:07;1.30;;;1.20;;
10041;SDS011;5061;49.068;12.058;2022-07-29T04:52:28;1.30;;;1.20;;
10041;SDS011;5061;49.068;12.058;2022-07-29T04:55:48;1.33;;;1.23;;
10041;SDS011;5061;49.068;12.058;2022-07-29T04:59:09;1.20;;;1.10;;
10041;SDS011;5061;49.068;12.058;2022-07-29T05:02:30;1.30;;;1.10;;
10041;SDS011;5061;49.068;12.058;2022-07-29T05:05:50;1.27;;;1.17;;
10041;SDS011;5061;49.068;12.058;2022-07-29T05:09:11;2.30;;;1.30;;
10041;SDS011;5061;49.068;12.058;2022-07-29T05:12:32;2.40;;;1.60;;
10041;SDS011;5061;49.068;12.058;2022-07-29T05:15:52;2.57;;;1.20;;
10041;SDS011;5061;49.068;12.058;2022-07-29T05:19:13;0.97;;;0.90;;
10041;SDS011;5061;49.068;12.058;2022-07-29T05:22:34;1.77;;;1.00;;
10041;SDS011;5061;49.068;12.058;2022-07-29T05:25:54;1.67;;;1.27;;
10041;SDS011;5061;49.068;12.058;2022-07-29T05:29:15;1.93;;;1.00;;
10041;SDS011;5061;49.068;12.058;2022-07-29T05:32:35;1.20;;;1.10;;
10041;SDS011;5061;49.068;12.058;2022-07-29T05:35:56;1.37;;;1.10;;
10041;SDS011;5061;49.068;12.058;2022-07-29T05:39:17;1.60;;;1.20;;
10041;SDS011;5061;49.068;12.058;2022-07-29T05:42:38;1.20;;;1.10;;
10041;SDS011;5061;49.068;12.058;2022-07-29T05:45:58;1.47;;;1.10;;
10041;SDS011;5061;49.068;12.058;2022-07-29T05:49:19;1.47;;;1.20;;
10041;SDS011;5061;49.068;12.058;2022-07-29T05:52:40;1.10;;;1.00;;
10041;SDS011;5061;49.068;12.058;2022-07-29T05:56:02;1.30;;;1.20;;
10041;SDS011;5061;49.068;12.058;2022-07-29T05:59:24;1.80;;;1.10;;
10041;SDS011;5061;49.068;12.058;2022-07-29T06:02:45;1.47;;;1.30;;
10041;SDS011;5061;49.068;12.058;2022-07-29T06:06:06;1.17;;;1.00;;
10041;SDS011;5061;49.068;12.058;2022-07-29T06:09:27;1.20;;;1.10;;
10041;SDS011;5061;49.068;12.058;2022-07-29T06:12:47;1.43;;;1.30;;
10041;SDS011;5061;49.068;12.058;2022-07-29T06:16:08;1.63;;;1.20;;
10041;SDS011;5061;49.068;12.058;2022-07-29T06:19:29;2.10;;;1.10;;
10041;SDS011;5061;49.068;12.058;2022-07-29T06:22:49;1.27;;;1.17;;
10041;SDS011;5061;49.068;12.058;2022-07-29T06:26:10;1.33;;;1.20;;
10041;SDS011;5061;49.068;12.058;2022-07-29T06:29:31;1.20;;;1.10;;
10041;SDS011;5061;49.068;12.058;2022-07-29T06:32:52;1.00;;;0.90;;
10041;SDS011;5061;49.068;12.058;2022-07-29T06:36:12;1.43;;;1.33;;
10041;SDS011;5061;49.068;12.058;2022-07-29T06:39:34;1.00;;;0.90;;
10041;SDS011;5061;49.068;12.058;2022-07-29T06:42:56;1.20;;;1.00;;
10041;SDS011;5061;49.068;12.058;2022-07-29T06:46:17;1.03;;;0.93;;
10041;SDS011;5061;49.068;12.058;2022-07-29T06:49:38;1.00;;;0.90;;
10041;SDS011;5061;49.068;12.058;2022-07-29T06:52:59;0.93;;;0.83;;
10041;SDS011;5061;49.068;12.058;2022-07-29T06:56:20;1.27;;;1.17;;
10041;SDS011;5061;49.068;12.058;2022-07-29T06:59:40;1.53;;;1.10;;
10041;SDS011;5061;49.068;12.058;2022-07-29T07:03:01;1.20;;;1.00;;
10041;SDS011;5061;49.068;12.058;2022-07-29T07:06:21;1.27;;;1.00;;
10041;SDS011;5061;49.068;12.058;2022-07-29T07:09:42;1.20;;;0.90;;
10041;SDS011;5061;49.068;12.058;2022-07-29T07:13:03;1.00;;;0.90;;
10041;SDS011;5061;49.068;12.058;2022-07-29T07:16:24;0.93;;;0.90;;
10041;SDS011;5061;49.068;12.058;2022-07-29T07:19:45;1.00;;;0.90;;
10041;SDS011;5061;49.068;12.058;2022-07-29T07:23:05;1.00;;;0.90;;
10041;SDS011;5061;49.068;12.058;2022-07-29T07:26:26;0.80;;;0.80;;
10041;SDS011;5061;49.068;12.058;2022-07-29T07:29:47;1.00;;;0.90;;
10041;SDS011;5061;49.068;12.058;2022-07-29T07:33:07;1.30;;;1.20;;
10041;SDS011;5061;49.068;12.058;2022-07-29T07:36:28;1.03;;;0.93;;
10041;SDS011;5061;49.068;12.058;2022-07-29T07:39:49;1.20;;;1.10;;
10041;SDS011;5061;49.068;12.058;2022-07-29T07:43:10;1.00;;;0.90;;
10041;SDS011;5061;49.068;12.058;2022-07-29T07:46:31;1.30;;;1.20;;
10041;SDS011;5061;49.068;12.058;2022-07-29T07:49:52;2.17;;;0.97;;
10041;SDS011;5061;49.068;12.058;2022-07-29T07:53:12;0.83;;;0.80;;
10041;SDS011;5061;49.068;12.058;2022-07-29T07:56:33;1.17;;;1.07;;
10041;SDS011;5061;49.068;12.058;2022-07-29T07:59:54;1.10;;;1.00;;
10041;SDS011;5061;49.068;12.058;2022-07-29T08:03:14;1.20;;;1.10;;
10041;SDS011;5061;49.068;12.058;2022-07-29T08:06:35;1.17;;;1.07;;
10041;SDS011;5061;49.068;12.058;2022-07-29T08:09:56;1.03;;;0.93;;
10041;SDS011;5061;49.068;12.058;2022-07-29T08:13:17;0.97;;;0.87;;
10041;SDS011;5061;49.068;12.058;2022-07-29T08:16:39;1.00;;;0.90;;
10041;SDS011;5061;49.068;12.058;2022-07-29T08:20:01;1.50;;;1.40;;
10041;SDS011;5061;49.068;12.058;2022-07-29T08:23:23;1.23;;;1.03;;
10041;SDS011;5061;49.068;12.058;2022-07-29T08:26:44;1.13;;;1.03;;
10041;SDS011;5061;49.068;12.058;2022-07-29T08:30:05;1.80;;;1.30;;
10041;SDS011;5061;49.068;12.058;2022-07-29T08:33:26;0.90;;;0.90;;
10041;SDS011;5061;49.068;12.058;2022-07-29T08:36:46;1.10;;;1.00;;
10041;SDS011;5061;49.068;12.058;2022-07-29T08:40:07;1.20;;;1.10;;
10041;SDS011;5061;49.068;12.058;2022-07-29T08:43:28;1.10;;;1.00;;
10041;SDS011;5061;49.068;12.058;2022-07-29T08:46:49;1.20;;;1.10;;
10041;SDS011;5061;49.068;12.058;2022-07-29T08:50:10;1.50;;;1.30;;
10041;SDS011;5061;49.068;12.058;2022-07-29T08:53:31;2.50;;;1.43;;
10041;SDS011;5061;49.068;12.058;2022-07-29T08:56:52;1.23;;;1.13;;
10041;SDS011;5061;49.068;12.058;2022-07-29T09:00:14;1.00;;;0.90;;
10041;SDS011;5061;49.068;12.058;2022-07-29T09:03:37;0.93;;;0.83;;
10041;SDS011;5061;49.068;12.058;2022-07-29T09:07:00;0.87;;;0.80;;
10041;SDS011;5061;49.068;12.058;2022-07-29T09:10:23;1.10;;;0.90;;
10041;SDS011;5061;49.068;12.058;2022-07-29T09:13:44;1.00;;;0.90;;
10041;SDS011;5061;49.068;12.058;2022-07-29T09:17:05;1.00;;;0.90;;
10041;SDS011;5061;49.068;12.058;2022-07-29T09:20:27;1.30;;;1.20;;
10041;SDS011;5061;49.068;12.058;2022-07-29T09:24:11;0.90;;;0.80;;
10041;SDS011;5061;49.068;12.058;2022-07-29T09:27:33;1.10;;;1.00;;
10041;SDS011;5061;49.068;12.058;2022-07-29T09:30:55;1.00;;;0.90;;
10041;SDS011;5061;49.068;12.058;2022-07-29T09:34:25;1.47;;;1.20;;
10041;SDS011;5061;49.068;12.058;2022-07-29T09:37:48;1.40;;;1.30;;
10041;SDS011;5061;49.068;12.058;2022-07-29T09:41:09;1.70;;;1.60;;
10041;SDS011;5061;49.068;12.058;2022-07-29T09:48:18;1.40;;;1.30;;
10041;SDS011;5061;49.068;12.058;2022-07-29T09:51:43;1.60;;;1.50;;
10041;SDS011;5061;49.068;12.058;2022-07-29T09:55:07;1.63;;;1.53;;
10041;SDS011;5061;49.068;12.058;2022-07-29T09:58:30;1.40;;;1.30;;
10041;SDS011;5061;49.068;12.058;2022-07-29T10:01:53;1.67;;;1.30;;
10041;SDS011;5061;49.068;12.058;2022-07-29T10:05:21;1.50;;;1.40;;
10041;SDS011;5061;49.068;12.058;2022-07-29T10:08:43;1.90;;;1.70;;
10041;SDS011;5061;49.068;12.058;2022-07-29T10:15:28;1.60;;;1.40;;
10041;SDS011;5061;49.068;12.058;2022-07-29T10:18:52;1.30;;;1.20;;
10041;SDS011;5061;49.068;12.058;2022-07-29T10:22:12;1.40;;;1.30;;
10041;SDS011;5061;49.068;12.058;2022-07-29T10:25:33;1.73;;;1.63;;
10041;SDS011;5061;49.068;12.058;2022-07-29T10:28:53;1.60;;;1.47;;
10041;SDS011;5061;49.068;12.058;2022-07-29T10:43:02;2.50;;;1.33;;
10041;SDS011;5061;49.068;12.058;2022-07-29T10:46:35;1.47;;;1.37;;
10041;SDS011;5061;49.068;12.058;2022-07-29T10:50:04;1.53;;;1.43;;
10041;SDS011;5061;49.068;12.058;2022-07-29T10:53:47;1.20;;;1.10;;
10041;SDS011;5061;49.068;12.058;2022-07-29T11:00:46;1.70;;;1.60;;
10041;SDS011;5061;49.068;12.058;2022-07-29T11:04:08;3.63;;;1.70;;
10041;SDS011;5061;49.068;12.058;2022-07-29T11:07:29;1.83;;;1.40;;
10041;SDS011;5061;49.068;12.058;2022-07-29T11:10:51;1.30;;;1.10;;
10041;SDS011;5061;49.068;12.058;2022-07-29T11:18:14;1.60;;;1.50;;
10041;SDS011;5061;49.068;12.058;2022-07-29T11:21:35;1.23;;;1.13;;
10041;SDS011;5061;49.068;12.058;2022-07-29T11:25:16;1.80;;;1.40;;
10041;SDS011;5061;49.068;12.058;2022-07-29T11:28:39;1.77;;;1.63;;
10041;SDS011;5061;49.068;12.058;2022-07-29T11:32:15;1.80;;;1.60;;
10041;SDS011;5061;49.068;12.058;2022-07-29T11:35:39;1.37;;;1.27;;
10041;SDS011;5061;49.068;12.058;2022-07-29T11:42:46;1.23;;;1.13;;
10041;SDS011;5061;49.068;12.058;2022-07-29T11:46:07;2.10;;;1.33;;
10041;SDS011;5061;49.068;12.058;2022-07-29T11:49:27;1.10;;;1.00;;
10041;SDS011;5061;49.068;12.058;2022-07-29T11:52:48;1.20;;;1.10;;
10041;SDS011;5061;49.068;12.058;2022-07-29T11:56:09;1.10;;;1.00;;
10041;SDS011;5061;49.068;12.058;2022-07-29T11:59:41;1.20;;;1.10;;
10041;SDS011;5061;49.068;12.058;2022-07-29T12:03:04;1.17;;;1.07;;
10041;SDS011;5061;49.068;12.058;2022-07-29T12:06:26;1.10;;;1.00;;
10041;SDS011;5061;49.068;12.058;2022-07-29T12:09:51;1.10;;;1.00;;
10041;SDS011;5061;49.068;12.058;2022-07-29T12:13:13;1.30;;;1.20;;
10041;SDS011;5061;49.068;12.058;2022-07-29T12:16:35;0.80;;;0.80;;
10041;SDS011;5061;49.068;12.058;2022-07-29T12:19:57;1.20;;;1.10;;
10041;SDS011;5061;49.068;12.058;2022-07-29T12:23:20;0.80;;;0.73;;
10041;SDS011;5061;49.068;12.058;2022-07-29T12:26:51;1.10;;;1.00;;
10041;SDS011;5061;49.068;12.058;2022-07-29T12:30:18;1.10;;;0.90;;
10041;SDS011;5061;49.068;12.058;2022-07-29T12:33:39;1.00;;;0.90;;
10041;SDS011;5061;49.068;12.058;2022-07-29T12:37:00;1.23;;;1.13;;
10041;SDS011;5061;49.068;12.058;2022-07-29T12:40:21;1.07;;;0.90;;
10041;SDS011;5061;49.068;12.058;2022-07-29T12:43:52;0.80;;;0.80;;
10041;SDS011;5061;49.068;12.058;2022-07-29T12:47:14;1.10;;;1.00;;
10041;SDS011;5061;49.068;12.058;2022-07-29T12:50:36;1.30;;;1.20;;
10041;SDS011;5061;49.068;12.058;2022-07-29T12:54:13;1.10;;;1.00;;
10041;SDS011;5061;49.068;12.058;2022-07-29T12:57:45;1.40;;;1.00;;
10041;SDS011;5061;49.068;12.058;2022-07-29T13:01:11;1.00;;;0.87;;
10041;SDS011;5061;49.068;12.058;2022-07-29T13:04:34;1.30;;;1.00;;
10041;SDS011;5061;49.068;12.058;2022-07-29T13:07:56;0.90;;;0.80;;
10041;SDS011;5061;49.068;12.058;2022-07-29T13:11:34;1.00;;;0.90;;
10041;SDS011;5061;49.068;12.058;2022-07-29T13:14:56;1.17;;;1.07;;
10041;SDS011;5061;49.068;12.058;2022-07-29T13:18:29;1.10;;;0.90;;
10041;SDS011;5061;49.068;12.058;2022-07-29T13:21:52;0.97;;;0.87;;
10041;SDS011;5061;49.068;12.058;2022-07-29T13:25:13;0.90;;;0.70;;
10041;SDS011;5061;49.068;12.058;2022-07-29T13:28:33;1.10;;;1.00;;
10041;SDS011;5061;49.068;12.058;2022-07-29T13:31:54;1.00;;;0.90;;
10041;SDS011;5061;49.068;12.058;2022-07-29T13:35:15;1.20;;;1.10;;
10041;SDS011;5061;49.068;12.058;2022-07-29T13:38:36;0.80;;;0.80;;
10041;SDS011;5061;49.068;12.058;2022-07-29T13:41:57;0.90;;;0.80;;
10041;SDS011;5061;49.068;12.058;2022-07-29T13:45:17;1.03;;;0.80;;
10041;SDS011;5061;49.068;12.058;2022-07-29T13:48:38;1.20;;;1.10;;
10041;SDS011;5061;49.068;12.058;2022-07-29T13:51:59;1.10;;;1.00;;
10041;SDS011;5061;49.068;12.058;2022-07-29T13:55:20;1.00;;;0.90;;
10041;SDS011;5061;49.068;12.058;2022-07-29T13:58:41;1.00;;;0.90;;
10041;SDS011;5061;49.068;12.058;2022-07-29T14:02:01;1.10;;;1.00;;
10041;SDS011;5061;49.068;12.058;2022-07-29T14:05:22;0.93;;;0.83;;
10041;SDS011;5061;49.068;12.058;2022-07-29T14:08:43;0.80;;;0.70;;
10041;SDS011;5061;49.068;12.058;2022-07-29T14:12:04;0.90;;;0.70;;
10041;SDS011;5061;49.068;12.058;2022-07-29T14:15:24;0.80;;;0.70;;
10041;SDS011;5061;49.068;12.058;2022-07-29T14:18:45;0.80;;;0.70;;
10041;SDS011;5061;49.068;12.058;2022-07-29T14:22:06;1.00;;;0.80;;
10041;SDS011;5061;49.068;12.058;2022-07-29T14:25:28;0.80;;;0.80;;
10041;SDS011;5061;49.068;12.058;2022-07-29T14:28:49;1.00;;;0.90;;
10041;SDS011;5061;49.068;12.058;2022-07-29T14:32:09;1.10;;;1.00;;
10041;SDS011;5061;49.068;12.058;2022-07-29T14:35:31;0.80;;;0.80;;
10041;SDS011;5061;49.068;12.058;2022-07-29T14:38:51;0.80;;;0.80;;
10041;SDS011;5061;49.068;12.058;2022-07-29T14:42:12;0.80;;;0.80;;
10041;SDS011;5061;49.068;12.058;2022-07-29T14:45:33;1.20;;;0.87;;
10041;SDS011;5061;49.068;12.058;2022-07-29T14:48:53;0.80;;;0.70;;
10041;SDS011;5061;49.068;12.058;2022-07-29T14:52:14;0.90;;;0.90;;
10041;SDS011;5061;49.068;12.058;2022-07-29T14:55:35;0.80;;;0.80;;
10041;SDS011;5061;49.068;12.058;2022-07-29T14:58:56;1.10;;;1.00;;
10041;SDS011;5061;49.068;12.058;2022-07-29T15:02:17;1.07;;;0.93;;
10041;SDS011;5061;49.068;12.058;2022-07-29T15:05:37;1.20;;;1.10;;
10041;SDS011;5061;49.068;12.058;2022-07-29T15:08:58;1.10;;;1.00;;
10041;SDS011;5061;49.068;12.058;2022-07-29T15:12:19;1.10;;;1.00;;
10041;SDS011;5061;49.068;12.058;2022-07-29T15:15:40;0.90;;;0.80;;
10041;SDS011;5061;49.068;12.058;2022-07-29T15:19:01;0.97;;;0.87;;
10041;SDS011;5061;49.068;12.058;2022-07-29T15:22:21;1.10;;;1.00;;
10041;SDS011;5061;49.068;12.058;2022-07-29T15:25:42;0.93;;;0.87;;
10041;SDS011;5061;49.068;12.058;2022-07-29T15:29:03;1.00;;;0.90;;
10041;SDS011;5061;49.068;12.058;2022-07-29T15:32:23;0.97;;;0.87;;
10041;SDS011;5061;49.068;12.058;2022-07-29T15:35:44;1.00;;;0.90;;
10041;SDS011;5061;49.068;12.058;2022-07-29T15:39:04;1.10;;;1.00;;
10041;SDS011;5061;49.068;12.058;2022-07-29T15:42:25;1.10;;;1.00;;
10041;SDS011;5061;49.068;12.058;2022-07-29T15:45:46;1.30;;;1.10;;
10041;SDS011;5061;49.068;12.058;2022-07-29T15:49:25;1.10;;;1.00;;
10041;SDS011;5061;49.068;12.058;2022-07-29T15:52:50;1.00;;;0.90;;
10041;SDS011;5061;49.068;12.058;2022-07-29T15:56:11;1.00;;;0.90;;
10041;SDS011;5061;49.068;12.058;2022-07-29T15:59:32;1.50;;;1.10;;
10041;SDS011;5061;49.068;12.058;2022-07-29T16:02:52;1.00;;;0.83;;
10041;SDS011;5061;49.068;12.058;2022-07-29T16:06:13;1.30;;;1.13;;
10041;SDS011;5061;49.068;12.058;2022-07-29T16:09:34;1.03;;;0.90;;
10041;SDS011;5061;49.068;12.058;2022-07-29T16:12:54;1.70;;;1.20;;
10041;SDS011;5061;49.068;12.058;2022-07-29T16:16:15;1.23;;;1.10;;
10041;SDS011;5061;49.068;12.058;2022-07-29T16:19:37;1.97;;;0.87;;
10041;SDS011;5061;49.068;12.058;2022-07-29T16:22:58;1.63;;;1.03;;
10041;SDS011;5061;49.068;12.058;2022-07-29T16:26:18;1.30;;;1.20;;
10041;SDS011;5061;49.068;12.058;2022-07-29T16:29:39;1.37;;;1.13;;
10041;SDS011;5061;49.068;12.058;2022-07-29T16:33:00;0.90;;;0.80;;
10041;SDS011;5061;49.068;12.058;2022-07-29T16:36:20;1.27;;;1.07;;
10041;SDS011;5061;49.068;12.058;2022-07-29T16:39:42;0.90;;;0.90;;
10041;SDS011;5061;49.068;12.058;2022-07-29T16:43:02;1.00;;;0.90;;
10041;SDS011;5061;49.068;12.058;2022-07-29T16:46:23;1.43;;;1.33;;
10041;SDS011;5061;49.068;12.058;2022-07-29T16:49:44;2.50;;;1.20;;
10041;SDS011;5061;49.068;12.058;2022-07-29T16:53:04;1.30;;;1.20;;
10041;SDS011;5061;49.068;12.058;2022-07-29T16:56:25;1.63;;;1.10;;
10041;SDS011;5061;49.068;12.058;2022-07-29T16:59:46;1.40;;;1.30;;
10041;SDS011;5061;49.068;12.058;2022-07-29T17:03:08;1.20;;;1.10;;
10041;SDS011;5061;49.068;12.058;2022-07-29T17:06:29;1.67;;;1.43;;
10041;SDS011;5061;49.068;12.058;2022-07-29T17:09:51;1.80;;;1.50;;
10041;SDS011;5061;49.068;12.058;2022-07-29T17:13:12;1.87;;;1.70;;
10041;SDS011;5061;49.068;12.058;2022-07-29T17:16:32;2.70;;;2.27;;
10041;SDS011;5061;49.068;12.058;2022-07-29T17:19:53;2.13;;;1.73;;
10041;SDS011;5061;49.068;12.058;2022-07-29T17:23:14;1.30;;;1.20;;
10041;SDS011;5061;49.068;12.058;2022-07-29T17:26:35;2.23;;;1.60;;
10041;SDS011;5061;49.068;12.058;2022-07-29T17:29:55;2.30;;;1.70;;
10041;SDS011;5061;49.068;12.058;2022-07-29T17:33:16;2.10;;;1.37;;
10041;SDS011;5061;49.068;12.058;2022-07-29T17:36:37;1.63;;;1.53;;
10041;SDS011;5061;49.068;12.058;2022-07-29T17:39:57;1.17;;;1.07;;
10041;SDS011;5061;49.068;12.058;2022-07-29T17:43:18;2.10;;;1.47;;
10041;SDS011;5061;49.068;12.058;2022-07-29T17:46:38;1.60;;;1.50;;
10041;SDS011;5061;49.068;12.058;2022-07-29T17:49:59;1.63;;;1.53;;
10041;SDS011;5061;49.068;12.058;2022-07-29T17:53:20;1.50;;;1.40;;
10041;SDS011;5061;49.068;12.058;2022-07-29T17:56:41;1.80;;;1.57;;
10041;SDS011;5061;49.068;12.058;2022-07-29T18:00:02;2.33;;;2.10;;
10041;SDS011;5061;49.068;12.058;2022-07-29T18:03:24;1.30;;;1.20;;
10041;SDS011;5061;49.068;12.058;2022-07-29T18:06:44;1.40;;;1.30;;
10041;SDS011;5061;49.068;12.058;2022-07-29T18:10:05;1.53;;;1.43;;
10041;SDS011;5061;49.068;12.058;2022-07-29T18:13:26;1.60;;;1.17;;
10041;SDS011;5061;49.068;12.058;2022-07-29T18:16:46;1.50;;;1.40;;
10041;SDS011;5061;49.068;12.058;2022-07-29T18:20:07;1.87;;;1.60;;
10041;SDS011;5061;49.068;12.058;2022-07-29T18:23:29;3.67;;;2.30;;
10041;SDS011;5061;49.068;12.058;2022-07-29T18:26:50;3.00;;;1.93;;
10041;SDS011;5061;49.068;12.058;2022-07-29T18:30:10;2.27;;;2.07;;
10041;SDS011;5061;49.068;12.058;2022-07-29T18:33:31;2.83;;;2.53;;
10041;SDS011;5061;49.068;12.058;2022-07-29T18:36:52;1.63;;;1.53;;
10041;SDS011;5061;49.068;12.058;2022-07-29T18:40:13;2.63;;;2.00;;
10041;SDS011;5061;49.068;12.058;2022-07-29T18:43:33;3.97;;;2.50;;
10041;SDS011;5061;49.068;12.058;2022-07-29T18:46:55;2.20;;;2.00;;
10041;SDS011;5061;49.068;12.058;2022-07-29T18:50:15;3.50;;;2.00;;
10041;SDS011;5061;49.068;12.058;2022-07-29T18:53:38;2.50;;;2.30;;
10041;SDS011;5061;49.068;12.058;2022-07-29T18:56:59;1.77;;;1.67;;
10041;SDS011;5061;49.068;12.058;2022-07-29T19:00:19;2.90;;;2.70;;
10041;SDS011;5061;49.068;12.058;2022-07-29T19:03:40;2.30;;;2.10;;
10041;SDS011;5061;49.068;12.058;2022-07-29T19:07:00;1.87;;;1.77;;
10041;SDS011;5061;49.068;12.058;2022-07-29T19:10:22;1.50;;;1.40;;
10041;SDS011;5061;49.068;12.058;2022-07-29T19:13:42;2.27;;;1.80;;
10041;SDS011;5061;49.068;12.058;2022-07-29T19:17:03;1.53;;;1.43;;
10041;SDS011;5061;49.068;12.058;2022-07-29T19:20:24;1.30;;;1.20;;
10041;SDS011;5061;49.068;12.058;2022-07-29T19:23:44;2.17;;;1.77;;
10041;SDS011;5061;49.068;12.058;2022-07-29T19:27:05;1.60;;;1.50;;
10041;SDS011;5061;49.068;12.058;2022-07-29T19:30:26;1.50;;;1.40;;
10041;SDS011;5061;49.068;12.058;2022-07-29T19:33:47;1.77;;;1.67;;
10041;SDS011;5061;49.068;12.058;2022-07-29T19:37:08;1.80;;;1.40;;
10041;SDS011;5061;49.068;12.058;2022-07-29T19:40:28;1.60;;;1.40;;
10041;SDS011;5061;49.068;12.058;2022-07-29T19:43:49;1.40;;;1.30;;
10041;SDS011;5061;49.068;12.058;2022-07-29T19:47:10;1.60;;;1.10;;
10041;SDS011;5061;49.068;12.058;2022-07-29T19:50:30;1.37;;;1.27;;
10041;SDS011;5061;49.068;12.058;2022-07-29T19:53:51;1.30;;;1.20;;
10041;SDS011;5061;49.068;12.058;2022-07-29T19:57:12;1.30;;;1.20;;
10041;SDS011;5061;49.068;12.058;2022-07-29T20:00:33;1.20;;;1.10;;
10041;SDS011;5061;49.068;12.058;2022-07-29T20:03:54;1.30;;;1.20;;
10041;SDS011;5061;49.068;12.058;2022-07-29T20:07:14;1.20;;;1.10;;
10041;SDS011;5061;49.068;12.058;2022-07-29T20:10:35;1.53;;;1.10;;
10041;SDS011;5061;49.068;12.058;2022-07-29T20:13:56;1.40;;;1.30;;
10041;SDS011;5061;49.068;12.058;2022-07-29T20:17:17;1.67;;;1.57;;
10041;SDS011;5061;49.068;12.058;2022-07-29T20:20:44;1.77;;;1.67;;
10041;SDS011;5061;49.068;12.058;2022-07-29T20:24:06;2.10;;;1.90;;
10041;SDS011;5061;49.068;12.058;2022-07-29T20:27:27;2.00;;;1.53;;
10041;SDS011;5061;49.068;12.058;2022-07-29T20:30:48;1.60;;;1.50;;
10041;SDS011;5061;49.068;12.058;2022-07-29T20:34:08;2.10;;;1.87;;
10041;SDS011;5061;49.068;12.058;2022-07-29T20:37:29;2.90;;;2.00;;
10041;SDS011;5061;49.068;12.058;2022-07-29T20:40:50;2.50;;;2.00;;
10041;SDS011;5061;49.068;12.058;2022-07-29T20:44:12;2.50;;;2.17;;
10041;SDS011;5061;49.068;12.058;2022-07-29T20:47:33;2.30;;;1.80;;
10041;SDS011;5061;49.068;12.058;2022-07-29T20:50:54;2.50;;;2.30;;
10041;SDS011;5061;49.068;12.058;2022-07-29T20:54:15;2.23;;;1.87;;
10041;SDS011;5061;49.068;12.058;2022-07-29T20:57:35;2.00;;;1.80;;